Time;durP1;ratioP1;P1;durP2;ratioP2;P2;SDS_P1;SDS_P2;PMS_P1;PMS_P2;Temp;Humidity;BMP_temperature;BMP_pressure;BME280_temperature;BME280_humidity;BME280_pressure;Samples;Min_cycle;Max_cycle;Signal;HPM_P1;HPM_P2
2021/12/26 00:00:47;;;;;;;5.38;2.05;;;-4.60;99.90;;;;;;4935769;29;20062;-88
2021/12/26 00:03:13;;;;;;;3.25;1.45;;;-4.60;99.90;;;;;;4935468;29;20058;-88
2021/12/26 00:05:39;;;;;;;5.18;1.73;;;-4.60;99.90;;;;;;4935498;29;20051;-87
2021/12/26 00:08:05;;;;;;;4.63;2.05;;;-4.60;99.90;;;;;;4935235;29;20083;-87
2021/12/26 00:10:31;;;;;;;7.20;1.83;;;-4.60;99.90;;;;;;4935699;29;20652;-87
2021/12/26 00:12:57;;;;;;;4.40;2.20;;;-4.60;99.90;;;;;;4935260;29;20066;-89
2021/12/26 00:15:24;;;;;;;6.13;2.58;;;-4.60;99.90;;;;;;4935611;29;20103;-88
2021/12/26 00:17:50;;;;;;;3.63;1.70;;;-4.60;99.90;;;;;;4935329;29;20095;-84
2021/12/26 00:20:17;;;;;;;8.02;2.08;;;-4.60;99.90;;;;;;4935500;29;20083;-84
2021/12/26 00:22:43;;;;;;;5.97;2.20;;;-4.60;99.90;;;;;;4935290;29;20074;-85
2021/12/26 00:25:11;;;;;;;7.18;2.33;;;-4.60;99.90;;;;;;4935266;29;20399;-86
2021/12/26 00:27:37;;;;;;;7.88;2.60;;;-4.60;99.90;;;;;;4935156;29;20082;-87
2021/12/26 00:30:08;;;;;;;4.45;2.00;;;-4.70;99.90;;;;;;4935284;29;20079;-87
2021/12/26 00:32:34;;;;;;;5.57;2.38;;;-4.70;99.90;;;;;;4935033;29;20051;-87
2021/12/26 00:35:00;;;;;;;3.47;1.80;;;-4.70;99.90;;;;;;4935021;29;20428;-86
2021/12/26 00:37:26;;;;;;;6.43;2.10;;;-4.70;99.90;;;;;;4935131;29;20107;-86
2021/12/26 00:39:51;;;;;;;4.72;2.00;;;-4.70;99.90;;;;;;4934944;29;20044;-87
2021/12/26 00:42:17;;;;;;;5.30;1.80;;;-4.70;99.90;;;;;;4934974;29;20476;-85
2021/12/26 00:44:43;;;;;;;5.47;2.05;;;-4.70;99.90;;;;;;4934768;29;20119;-85
2021/12/26 00:47:11;;;;;;;3.85;1.95;;;-4.80;99.90;;;;;;4935584;29;20063;-85
2021/12/26 00:49:37;;;;;;;5.05;2.22;;;-4.80;99.90;;;;;;4935046;29;20480;-84
2021/12/26 00:52:04;;;;;;;6.03;2.00;;;-4.70;99.90;;;;;;4936213;29;20040;-84
2021/12/26 00:54:30;;;;;;;4.72;1.60;;;-4.70;99.90;;;;;;4935091;29;20048;-84
2021/12/26 00:56:57;;;;;;;3.28;1.70;;;-4.70;99.90;;;;;;4935117;29;20040;-84
2021/12/26 00:59:24;;;;;;;4.40;1.92;;;-4.70;99.90;;;;;;4935297;29;20051;-84
2021/12/26 01:01:50;;;;;;;2.90;1.40;;;-4.70;99.90;;;;;;4936191;29;20043;-84
2021/12/26 01:04:15;;;;;;;2.97;1.60;;;-4.60;99.90;;;;;;4936116;29;20448;-84
2021/12/26 01:06:41;;;;;;;3.63;1.50;;;-4.60;99.90;;;;;;4935126;29;20133;-87
2021/12/26 01:09:15;;;;;;;3.13;1.67;;;-4.60;99.90;;;;;;4934971;29;20086;-86
2021/12/26 01:11:47;;;;;;;6.15;1.90;;;-4.60;99.90;;;;;;4935055;29;20051;-86
2021/12/26 01:14:14;;;;;;;4.38;1.70;;;-4.70;99.90;;;;;;4935097;29;20139;-86
2021/12/26 01:16:41;;;;;;;3.55;1.55;;;-4.60;99.90;;;;;;4934758;29;20048;-86
2021/12/26 01:19:13;;;;;;;4.13;1.50;;;-4.70;99.90;;;;;;4934750;29;20043;-86
2021/12/26 01:21:40;;;;;;;3.47;1.33;;;-4.70;99.90;;;;;;4935240;29;20044;-86
2021/12/26 01:24:08;;;;;;;4.20;1.80;;;-4.70;99.90;;;;;;4934704;29;20052;-86
2021/12/26 01:26:34;;;;;;;4.63;1.63;;;-4.70;99.90;;;;;;4934670;29;20048;-86
2021/12/26 01:29:01;;;;;;;4.93;2.10;;;-4.70;99.90;;;;;;4934932;29;20056;-86
2021/12/26 01:31:27;;;;;;;3.92;1.63;;;-4.70;99.90;;;;;;4934715;29;20480;-85
2021/12/26 01:33:56;;;;;;;3.95;1.85;;;-4.70;99.90;;;;;;4934922;29;20040;-85
2021/12/26 01:36:22;;;;;;;4.43;1.38;;;-4.70;99.90;;;;;;4934514;29;20051;-86
2021/12/26 01:38:48;;;;;;;3.42;1.65;;;-4.70;99.90;;;;;;4935785;29;20130;-85
2021/12/26 01:41:16;;;;;;;3.17;1.58;;;-4.70;99.90;;;;;;4935851;29;20123;-85
2021/12/26 01:43:45;;;;;;;3.47;1.33;;;-4.60;99.90;;;;;;4934380;29;20067;-84
2021/12/26 01:46:12;;;;;;;3.58;1.80;;;-4.60;99.90;;;;;;4936685;29;20127;-84
2021/12/26 01:48:37;;;;;;;3.72;1.52;;;-4.60;99.90;;;;;;4938100;29;20163;-84
2021/12/26 01:51:03;;;;;;;3.47;1.75;;;-4.60;99.90;;;;;;4937984;29;20486;-84
2021/12/26 01:53:38;;;;;;;3.60;1.75;;;-4.60;99.90;;;;;;4937994;29;20090;-84
2021/12/26 01:56:10;;;;;;;3.92;1.42;;;-4.60;99.90;;;;;;4938093;29;20083;-84
2021/12/26 01:58:38;;;;;;;5.53;1.77;;;-4.60;99.90;;;;;;4937728;29;20059;-85
2021/12/26 02:01:09;;;;;;;3.78;1.77;;;-4.60;99.90;;;;;;4937547;29;20099;-84
2021/12/26 02:03:36;;;;;;;5.53;2.15;;;-4.60;99.90;;;;;;4937796;29;20047;-84
2021/12/26 02:06:03;;;;;;;5.30;1.60;;;-4.70;99.90;;;;;;4937585;29;20055;-84
2021/12/26 02:08:29;;;;;;;4.80;1.75;;;-4.70;99.90;;;;;;4937813;29;20488;-84
2021/12/26 02:10:55;;;;;;;3.92;1.63;;;-4.70;99.90;;;;;;4937567;29;20052;-84
2021/12/26 02:13:20;;;;;;;4.78;2.13;;;-4.70;99.90;;;;;;4937550;29;20051;-86
2021/12/26 02:15:49;;;;;;;4.88;1.90;;;-4.70;99.90;;;;;;4937321;29;20051;-85
2021/12/26 02:18:15;;;;;;;3.55;1.70;;;-4.70;99.90;;;;;;4937485;29;20055;-85
2021/12/26 02:21:01;;;;;;;5.07;1.80;;;-4.70;99.90;;;;;;4938501;29;20043;-85
2021/12/26 02:23:38;;;;;;;5.07;1.90;;;-4.70;99.90;;;;;;4937331;29;20488;-85
2021/12/26 02:28:49;;;;;;;3.53;1.77;;;-4.70;99.90;;;;;;4937003;29;20495;-86
2021/12/26 02:31:16;;;;;;;2.75;1.40;;;-4.60;99.90;;;;;;4937385;29;20488;-85
2021/12/26 02:33:42;;;;;;;5.05;2.00;;;-4.70;99.90;;;;;;4937116;29;20082;-85
2021/12/26 02:36:08;;;;;;;4.28;1.98;;;-4.70;99.90;;;;;;4936887;29;20044;-85
2021/12/26 02:38:35;;;;;;;5.10;1.80;;;-4.70;99.90;;;;;;4937105;29;20051;-85
2021/12/26 02:41:02;;;;;;;2.97;1.50;;;-4.80;99.90;;;;;;4936916;29;20044;-85
2021/12/26 02:43:29;;;;;;;3.67;1.90;;;-4.70;99.90;;;;;;4936538;29;20066;-87
2021/12/26 02:45:56;;;;;;;3.83;1.85;;;-4.80;99.90;;;;;;4936850;29;20057;-86
2021/12/26 02:48:22;;;;;;;4.53;2.10;;;-4.80;99.90;;;;;;4937058;29;20067;-87
2021/12/26 02:50:56;;;;;;;4.03;1.58;;;-4.80;99.90;;;;;;4936747;29;20051;-86
2021/12/26 02:53:22;;;;;;;5.13;2.00;;;-4.80;99.90;;;;;;4937060;29;20098;-86
2021/12/26 02:55:49;;;;;;;4.00;1.90;;;-4.80;99.90;;;;;;4936713;29;20079;-87
2021/12/26 02:58:15;;;;;;;4.90;1.98;;;-4.90;99.90;;;;;;4936861;29;20048;-87
2021/12/26 03:00:51;;;;;;;4.32;1.80;;;-4.90;99.90;;;;;;4936579;29;20480;-86
2021/12/26 03:03:17;;;;;;;3.53;1.70;;;-4.90;99.90;;;;;;4936528;29;20052;-89
2021/12/26 03:05:45;;;;;;;4.10;2.17;;;-4.90;99.90;;;;;;4936340;29;20039;-88
2021/12/26 03:08:14;;;;;;;3.58;1.75;;;-5.00;99.90;;;;;;4936630;29;20055;-87
2021/12/26 03:10:40;;;;;;;5.03;1.80;;;-5.00;99.90;;;;;;4936324;29;20496;-87
2021/12/26 03:13:09;;;;;;;4.28;1.83;;;-5.00;99.90;;;;;;4936326;29;20110;-87
2021/12/26 03:15:37;;;;;;;6.15;2.25;;;-5.00;99.90;;;;;;4936282;29;20411;-87
2021/12/26 03:18:03;;;;;;;4.47;2.30;;;-5.00;99.90;;;;;;4936518;29;20130;-87
2021/12/26 03:20:34;;;;;;;5.10;3.17;;;-5.00;99.90;;;;;;4936365;29;20095;-86
2021/12/26 03:23:00;;;;;;;4.53;1.80;;;-5.00;99.90;;;;;;4936019;29;20063;-87
2021/12/26 03:25:28;;;;;;;3.97;1.50;;;-5.00;99.90;;;;;;4936094;29;20123;-86
2021/12/26 03:27:54;;;;;;;4.80;1.85;;;-5.00;99.90;;;;;;4936065;29;20052;-86
2021/12/26 03:30:24;;;;;;;4.50;1.70;;;-5.10;99.90;;;;;;4936305;29;20067;-85
2021/12/26 03:32:50;;;;;;;4.50;1.50;;;-5.00;99.90;;;;;;4936362;29;20047;-86
2021/12/26 03:35:18;;;;;;;4.05;1.60;;;-5.00;99.90;;;;;;4936094;29;20079;-86
2021/12/26 03:37:44;;;;;;;3.55;1.67;;;-5.00;99.90;;;;;;4936197;29;20122;-86
2021/12/26 03:40:10;;;;;;;5.22;2.00;;;-5.00;99.90;;;;;;4935893;29;20472;-85
2021/12/26 03:42:37;;;;;;;4.88;2.25;;;-5.00;99.90;;;;;;4935571;29;20051;-84
2021/12/26 03:45:05;;;;;;;4.65;1.80;;;-5.00;99.90;;;;;;4936995;29;20102;-84
2021/12/26 03:47:32;;;;;;;3.38;1.52;;;-5.00;99.90;;;;;;4935836;29;20066;-81
2021/12/26 03:49:58;;;;;;;3.33;1.63;;;-5.00;99.90;;;;;;4935814;29;20377;-81
2021/12/26 03:52:25;;;;;;;3.90;1.88;;;-5.00;99.90;;;;;;4935665;29;20134;-81
2021/12/26 03:54:52;;;;;;;5.82;2.03;;;-5.00;99.90;;;;;;4935679;29;20044;-82
2021/12/26 03:57:17;;;;;;;4.20;1.73;;;-5.00;99.90;;;;;;4935626;29;20107;-84
2021/12/26 03:59:43;;;;;;;4.65;1.77;;;-5.10;99.90;;;;;;4935394;29;20047;-83
2021/12/26 04:02:10;;;;;;;4.38;1.52;;;-5.00;99.90;;;;;;4935504;29;20472;-83
2021/12/26 04:04:36;;;;;;;4.50;1.77;;;-5.00;99.90;;;;;;4935452;29;20043;-83
2021/12/26 04:07:02;;;;;;;4.57;1.77;;;-5.00;99.90;;;;;;4935714;29;20094;-83
2021/12/26 04:09:27;;;;;;;6.00;1.90;;;-5.00;99.90;;;;;;4935036;29;20126;-84
2021/12/26 04:11:53;;;;;;;4.32;2.03;;;-5.00;99.90;;;;;;4935389;29;20091;-84
2021/12/26 04:14:20;;;;;;;4.00;1.77;;;-5.00;99.90;;;;;;4935570;29;20055;-84
2021/12/26 04:16:46;;;;;;;4.03;1.60;;;-5.00;99.90;;;;;;4935487;29;20044;-84
2021/12/26 04:19:12;;;;;;;4.07;1.65;;;-4.90;99.90;;;;;;4935218;29;20047;-84
2021/12/26 04:21:37;;;;;;;2.95;1.75;;;-4.90;99.90;;;;;;4935232;29;20081;-84
2021/12/26 04:24:04;;;;;;;7.20;1.58;;;-5.00;99.90;;;;;;4935485;29;20051;-84
2021/12/26 04:26:31;;;;;;;5.80;1.92;;;-5.00;99.90;;;;;;4935224;29;20050;-84
2021/12/26 04:28:56;;;;;;;5.82;2.78;;;-5.00;99.90;;;;;;4935085;29;20054;-84
2021/12/26 04:31:22;;;;;;;4.57;1.90;;;-5.00;99.90;;;;;;4935341;29;20052;-84
2021/12/26 04:33:49;;;;;;;5.18;1.85;;;-4.90;99.90;;;;;;4935132;29;20527;-84
2021/12/26 04:36:16;;;;;;;5.80;1.83;;;-5.00;99.90;;;;;;4935306;29;20495;-84
2021/12/26 04:38:42;;;;;;;3.90;1.80;;;-5.00;99.90;;;;;;4935415;29;20044;-84
2021/12/26 04:41:08;;;;;;;4.50;1.80;;;-5.00;99.90;;;;;;4935099;29;20055;-85
2021/12/26 04:43:36;;;;;;;3.80;1.55;;;-5.00;99.90;;;;;;4934717;29;20056;-85
2021/12/26 04:46:06;;;;;;;6.65;1.80;;;-5.00;99.90;;;;;;4934923;29;20044;-85
2021/12/26 04:48:34;;;;;;;3.35;1.52;;;-5.00;99.90;;;;;;4935296;29;20048;-85
2021/12/26 04:51:00;;;;;;;3.65;1.80;;;-5.00;99.90;;;;;;4919467;29;20052;-85
2021/12/26 04:53:26;;;;;;;4.70;1.60;;;-5.00;99.90;;;;;;4935205;29;20484;-85
2021/12/26 04:55:52;;;;;;;3.45;1.60;;;-5.00;99.90;;;;;;4934915;29;20049;-85
2021/12/26 04:58:17;;;;;;;3.85;1.25;;;-5.00;99.90;;;;;;4935174;29;20047;-85
2021/12/26 05:00:43;;;;;;;2.50;1.20;;;-5.00;99.90;;;;;;4935053;29;20483;-85
2021/12/26 05:03:09;;;;;;;2.63;1.02;;;-4.90;99.90;;;;;;4934771;29;20563;-85
2021/12/26 05:05:36;;;;;;;4.20;1.75;;;-4.90;99.90;;;;;;4934872;29;20134;-85
2021/12/26 05:08:02;;;;;;;2.65;1.15;;;-4.90;99.90;;;;;;4934951;29;20099;-85
2021/12/26 05:10:29;;;;;;;2.25;1.23;;;-4.80;99.90;;;;;;4934873;29;20039;-85
2021/12/26 05:12:56;;;;;;;3.22;1.52;;;-4.80;99.90;;;;;;4935002;29;20048;-85
2021/12/26 05:15:23;;;;;;;5.10;1.80;;;-4.70;99.90;;;;;;4934772;29;20051;-84
2021/12/26 05:17:50;;;;;;;3.80;1.30;;;-4.70;99.90;;;;;;4935028;29;20048;-85
2021/12/26 05:20:18;;;;;;;3.30;1.58;;;-4.70;99.90;;;;;;4935920;29;20062;-85
2021/12/26 05:22:44;;;;;;;3.05;1.25;;;-4.60;99.90;;;;;;4938486;29;20063;-85
2021/12/26 05:25:10;;;;;;;5.22;2.70;;;-4.60;99.90;;;;;;4938438;29;20480;-85
2021/12/26 05:27:37;;;;;;;11.70;4.68;;;-4.60;99.90;;;;;;4938473;29;20491;-85
2021/12/26 05:30:05;;;;;;;6.07;2.60;;;-4.70;99.90;;;;;;4938455;29;20384;-85
2021/12/26 05:32:30;;;;;;;6.00;2.40;;;-4.60;99.90;;;;;;4938222;29;20058;-85
2021/12/26 05:34:56;;;;;;;4.60;1.77;;;-4.70;99.90;;;;;;4938213;29;20047;-85
2021/12/26 05:37:21;;;;;;;5.10;2.65;;;-4.60;99.90;;;;;;4938169;29;20054;-84
2021/12/26 05:39:47;;;;;;;5.15;2.13;;;-4.70;99.90;;;;;;4938113;29;20134;-84
2021/12/26 05:42:16;;;;;;;3.28;1.65;;;-4.70;99.90;;;;;;4937880;29;20099;-85
2021/12/26 05:44:43;;;;;;;4.25;1.98;;;-4.70;99.90;;;;;;4937844;29;20051;-85
2021/12/26 05:47:09;;;;;;;3.90;1.55;;;-4.70;99.90;;;;;;4938117;29;20107;-85
2021/12/26 05:49:34;;;;;;;5.30;1.90;;;-4.70;99.90;;;;;;4937980;29;20047;-85
2021/12/26 05:52:00;;;;;;;4.13;2.17;;;-4.70;99.90;;;;;;4938125;29;20048;-85
2021/12/26 05:54:26;;;;;;;5.53;2.17;;;-4.70;99.90;;;;;;4938007;29;20052;-85
2021/12/26 05:56:51;;;;;;;4.75;2.05;;;-4.70;99.90;;;;;;4937872;29;20055;-84
2021/12/26 05:59:17;;;;;;;7.03;2.90;;;-4.70;99.90;;;;;;4937659;29;20058;-84
2021/12/26 06:01:43;;;;;;;3.38;1.67;;;-4.70;99.90;;;;;;4937549;29;20040;-84
2021/12/26 06:04:08;;;;;;;3.92;1.92;;;-4.70;99.90;;;;;;4937565;29;20056;-85
2021/12/26 06:06:34;;;;;;;7.05;2.47;;;-4.70;99.90;;;;;;4937553;29;20044;-85
2021/12/26 06:09:00;;;;;;;5.53;2.13;;;-4.80;99.90;;;;;;4937487;29;20047;-85
2021/12/26 06:11:26;;;;;;;4.03;2.38;;;-4.80;99.90;;;;;;4937700;29;20102;-85
2021/12/26 06:13:51;;;;;;;6.28;2.58;;;-4.70;99.90;;;;;;4937562;29;20421;-84
2021/12/26 06:16:17;;;;;;;6.28;2.15;;;-4.80;99.90;;;;;;4937307;29;20393;-84
2021/12/26 06:18:43;;;;;;;6.45;2.22;;;-4.80;99.90;;;;;;4937396;29;20130;-84
2021/12/26 06:21:08;;;;;;;7.28;1.65;;;-4.80;99.90;;;;;;4937330;29;20090;-84
2021/12/26 06:23:34;;;;;;;4.35;1.98;;;-4.80;99.90;;;;;;4937089;29;20126;-84
2021/12/26 06:26:00;;;;;;;5.45;2.03;;;-4.80;99.90;;;;;;4937409;29;20047;-84
2021/12/26 06:28:25;;;;;;;3.78;2.13;;;-4.80;99.90;;;;;;4937133;29;20447;-84
2021/12/26 06:30:51;;;;;;;5.85;2.33;;;-4.80;99.90;;;;;;4938025;29;20043;-84
2021/12/26 06:33:17;;;;;;;8.45;3.55;;;-4.80;99.90;;;;;;4937435;29;20059;-84
2021/12/26 06:35:42;;;;;;;5.90;2.05;;;-4.90;99.90;;;;;;4937041;29;20051;-84
2021/12/26 06:38:08;;;;;;;4.30;2.05;;;-4.90;99.90;;;;;;4936841;29;20050;-85
2021/12/26 06:40:34;;;;;;;5.38;1.92;;;-4.90;99.90;;;;;;4936892;29;20048;-83
2021/12/26 06:42:59;;;;;;;6.22;2.78;;;-4.90;99.90;;;;;;4936653;29;21180;-83
2021/12/26 06:45:25;;;;;;;5.38;2.13;;;-5.00;99.90;;;;;;4936881;29;20060;-83
2021/12/26 06:47:54;;;;;;;5.93;3.17;;;-4.90;99.90;;;;;;4937191;29;20107;-83
2021/12/26 06:50:20;;;;;;;5.03;2.10;;;-4.90;99.90;;;;;;4937089;29;20055;-84
2021/12/26 06:52:48;;;;;;;6.20;2.72;;;-5.00;99.90;;;;;;4936869;29;20044;-84
2021/12/26 06:55:14;;;;;;;6.10;2.53;;;-5.00;99.90;;;;;;4936873;29;20043;-84
2021/12/26 06:57:41;;;;;;;7.65;2.92;;;-4.90;99.90;;;;;;4936653;29;20059;-84
2021/12/26 07:00:11;;;;;;;7.00;2.38;;;-5.00;99.90;;;;;;4936846;29;20507;-83
2021/12/26 07:02:36;;;;;;;6.55;1.77;;;-4.90;99.90;;;;;;4936499;29;20082;-84
2021/12/26 07:05:03;;;;;;;5.85;2.55;;;-4.90;99.90;;;;;;4936558;29;20086;-83
2021/12/26 07:07:28;;;;;;;5.32;2.60;;;-5.00;99.90;;;;;;4936349;29;20047;-83
2021/12/26 07:09:54;;;;;;;6.53;2.58;;;-5.00;99.90;;;;;;4936643;29;20047;-83
2021/12/26 07:12:20;;;;;;;6.10;3.30;;;-4.90;99.90;;;;;;4936570;29;20395;-84
2021/12/26 07:14:45;;;;;;;3.53;2.20;;;-4.90;99.90;;;;;;4937642;29;20094;-84
2021/12/26 07:17:11;;;;;;;5.45;2.70;;;-4.90;99.90;;;;;;4936387;29;20433;-84
2021/12/26 07:19:38;;;;;;;7.43;2.55;;;-4.90;99.90;;;;;;4936290;29;20051;-83
2021/12/26 07:22:04;;;;;;;7.32;2.83;;;-4.90;99.90;;;;;;4936000;29;20431;-84
2021/12/26 07:24:30;;;;;;;5.13;2.55;;;-4.90;99.90;;;;;;4936148;29;20052;-83
2021/12/26 07:26:55;;;;;;;4.97;2.75;;;-4.90;99.90;;;;;;4936352;29;20042;-83
2021/12/26 07:29:21;;;;;;;6.20;2.53;;;-4.80;99.90;;;;;;4935891;29;20048;-83
2021/12/26 07:31:47;;;;;;;4.82;2.28;;;-4.80;99.90;;;;;;4935855;29;20091;-83
2021/12/26 07:34:13;;;;;;;8.23;3.17;;;-4.70;99.90;;;;;;4935714;29;20056;-83
2021/12/26 07:36:40;;;;;;;4.53;2.40;;;-4.80;99.90;;;;;;4934734;29;20044;-84
2021/12/26 07:39:06;;;;;;;8.75;2.58;;;-4.80;99.90;;;;;;4934795;29;20039;-84
2021/12/26 07:41:31;;;;;;;5.63;2.22;;;-4.70;99.90;;;;;;4935643;29;20048;-83
2021/12/26 07:43:58;;;;;;;6.53;2.55;;;-4.80;99.90;;;;;;4934495;29;20069;-83
2021/12/26 07:46:24;;;;;;;5.45;2.53;;;-4.70;99.90;;;;;;4935740;29;20040;-83
2021/12/26 07:48:49;;;;;;;6.63;2.70;;;-4.70;99.90;;;;;;4935475;29;20048;-83
2021/12/26 07:51:15;;;;;;;8.85;3.03;;;-4.70;99.90;;;;;;4935513;29;20054;-83
2021/12/26 07:53:41;;;;;;;5.80;2.78;;;-4.70;99.90;;;;;;4935679;29;20142;-85
2021/12/26 07:56:07;;;;;;;5.10;2.33;;;-4.60;99.90;;;;;;4935783;29;20444;-85
2021/12/26 07:58:33;;;;;;;7.03;2.70;;;-4.60;99.90;;;;;;4935376;29;20049;-85
2021/12/26 08:00:59;;;;;;;5.60;2.05;;;-4.60;99.90;;;;;;4935423;29;20078;-81
2021/12/26 08:03:24;;;;;;;7.53;2.67;;;-4.60;99.90;;;;;;4935261;29;20078;-82
2021/12/26 08:05:50;;;;;;;6.30;2.75;;;-4.50;99.90;;;;;;4935618;29;20115;-84
2021/12/26 08:08:16;;;;;;;6.78;2.42;;;-4.50;99.90;;;;;;4935324;29;20056;-80
2021/12/26 08:10:42;;;;;;;4.03;2.33;;;-4.50;99.90;;;;;;4935296;29;20074;-80
2021/12/26 08:13:07;;;;;;;6.60;2.75;;;-4.50;99.90;;;;;;4935437;29;20514;-80
2021/12/26 08:15:33;;;;;;;6.35;2.35;;;-4.50;99.90;;;;;;4935415;29;20478;-80
2021/12/26 08:17:59;;;;;;;8.70;2.55;;;-4.50;99.90;;;;;;4935313;29;20089;-81
2021/12/26 08:20:24;;;;;;;8.82;2.90;;;-4.30;99.90;;;;;;4927671;29;20106;-79
2021/12/26 08:22:50;;;;;;;6.05;3.40;;;-4.30;99.90;;;;;;4917135;29;20087;-80
2021/12/26 08:25:17;;;;;;;5.93;3.13;;;-4.30;99.90;;;;;;4916092;29;20055;-79
2021/12/26 08:27:42;;;;;;;9.50;2.95;;;-4.30;99.90;;;;;;4916132;29;20064;-79
2021/12/26 08:30:09;;;;;;;6.05;3.22;;;-4.30;99.90;;;;;;4917292;29;20048;-80
2021/12/26 08:32:38;;;;;;;4.95;2.80;;;-4.20;99.90;;;;;;4916006;29;20056;-79
2021/12/26 08:35:06;;;;;;;5.78;3.22;;;-4.20;99.90;;;;;;4915788;29;20056;-79
2021/12/26 08:37:32;;;;;;;8.68;4.30;;;-4.20;99.90;;;;;;4915995;29;20032;-80
2021/12/26 08:39:57;;;;;;;5.72;3.10;;;-4.30;99.90;;;;;;4915731;29;20555;-79
2021/12/26 08:42:23;;;;;;;6.75;3.13;;;-4.20;99.90;;;;;;4915692;29;20056;-79
2021/12/26 08:44:52;;;;;;;7.03;3.47;;;-4.20;99.90;;;;;;4915562;29;20060;-79
2021/12/26 08:47:18;;;;;;;6.70;3.45;;;-4.20;99.90;;;;;;4915743;29;20063;-79
2021/12/26 08:49:44;;;;;;;6.85;3.75;;;-4.20;99.90;;;;;;4915601;29;20047;-79
2021/12/26 08:52:10;;;;;;;11.38;4.35;;;-4.20;99.90;;;;;;4915568;29;20048;-80
2021/12/26 08:54:38;;;;;;;7.55;3.17;;;-4.10;99.90;;;;;;4917400;29;20144;-79
2021/12/26 08:57:04;;;;;;;7.10;3.83;;;-4.10;99.90;;;;;;4919633;29;20091;-81
2021/12/26 08:59:30;;;;;;;10.20;3.50;;;-4.10;99.90;;;;;;4919894;29;20044;-80
2021/12/26 09:01:58;;;;;;;8.48;3.97;;;-4.10;99.90;;;;;;4920654;29;20044;-80
2021/12/26 09:04:23;;;;;;;6.85;3.22;;;-4.00;99.90;;;;;;4920604;29;20103;-79
2021/12/26 09:06:49;;;;;;;7.35;4.10;;;-4.00;99.90;;;;;;4920789;29;20111;-79
2021/12/26 09:09:15;;;;;;;8.00;3.35;;;-3.90;99.90;;;;;;4919567;29;20519;-79
2021/12/26 09:11:41;;;;;;;6.65;3.80;;;-3.90;99.90;;;;;;4919475;29;20127;-80
2021/12/26 09:14:06;;;;;;;7.68;3.72;;;-3.80;99.90;;;;;;4919194;29;20107;-80
2021/12/26 09:16:34;;;;;;;9.07;4.57;;;-3.80;99.90;;;;;;4919595;29;20044;-80
2021/12/26 09:19:04;;;;;;;7.03;3.40;;;-3.80;99.90;;;;;;4925663;29;20082;-80
2021/12/26 09:21:30;;;;;;;4.53;3.00;;;-3.70;99.90;;;;;;4922574;29;20052;-80
2021/12/26 09:23:55;;;;;;;9.02;3.20;;;-3.70;99.90;;;;;;4922820;29;20052;-81
2021/12/26 09:26:21;;;;;;;7.90;3.90;;;-3.60;99.90;;;;;;4938608;29;20059;-81
2021/12/26 09:28:48;;;;;;;6.85;3.35;;;-3.60;99.90;;;;;;4937467;29;20040;-81
2021/12/26 09:31:14;;;;;;;9.60;4.22;;;-3.50;99.90;;;;;;4939113;29;20107;-81
2021/12/26 09:33:40;;;;;;;7.50;3.58;;;-3.40;99.90;;;;;;4938059;29;20051;-81
2021/12/26 09:36:05;;;;;;;9.00;3.90;;;-3.40;99.90;;;;;;4939426;29;20825;-80
2021/12/26 09:38:31;;;;;;;7.13;2.70;;;-3.30;99.90;;;;;;4939291;29;20052;-81
2021/12/26 09:40:59;;;;;;;10.05;3.47;;;-3.20;99.90;;;;;;4937727;29;20047;-81
2021/12/26 09:43:25;;;;;;;6.03;3.00;;;-3.10;99.90;;;;;;4938661;29;20075;-82
2021/12/26 09:45:51;;;;;;;8.75;3.47;;;-3.00;99.90;;;;;;4939064;29;20118;-82
2021/12/26 09:48:18;;;;;;;9.05;3.42;;;-2.90;99.90;;;;;;4933807;29;20043;-82
2021/12/26 09:50:44;;;;;;;8.60;3.38;;;-2.90;99.90;;;;;;4927131;29;20047;-83
2021/12/26 09:53:10;;;;;;;6.40;3.10;;;-2.80;99.90;;;;;;4919723;29;20188;-83
2021/12/26 09:55:35;;;;;;;7.32;3.00;;;-2.70;99.90;;;;;;4918499;29;20143;-83
2021/12/26 09:58:01;;;;;;;7.68;2.95;;;-2.70;98.70;;;;;;4920967;29;20075;-83
2021/12/26 10:00:29;;;;;;;6.35;3.00;;;-2.60;99.90;;;;;;4926812;29;20528;-83
2021/12/26 10:03:17;;;;;;;9.55;3.92;;;-2.50;99.90;;;;;;4918225;29;20044;-83
2021/12/26 10:06:02;;;;;;;6.30;3.28;;;-2.50;99.90;;;;;;4917623;29;20055;-86
2021/12/26 10:08:30;;;;;;;8.77;3.78;;;-2.40;99.90;;;;;;4919543;29;20095;-83
2021/12/26 10:11:14;;;;;;;7.50;3.97;;;-2.30;99.90;;;;;;4918209;29;20087;-83
2021/12/26 10:13:56;;;;;;;10.20;3.50;;;-2.20;99.90;;;;;;4918327;29;20059;-83
2021/12/26 10:16:25;;;;;;;8.23;4.50;;;-2.20;99.90;;;;;;4918111;29;20433;-83
2021/12/26 10:18:52;;;;;;;9.48;3.25;;;-2.10;99.90;;;;;;4926854;29;20048;-84
2021/12/26 10:21:31;;;;;;;7.57;3.78;;;-2.10;99.70;;;;;;4935799;29;20067;-85
2021/12/26 10:24:07;;;;;;;9.10;3.97;;;-2.00;99.90;;;;;;4935173;29;20056;-86
2021/12/26 10:26:36;;;;;;;8.75;3.70;;;-2.00;99.90;;;;;;4936530;29;20130;-85
2021/12/26 10:29:08;;;;;;;9.73;5.07;;;-1.80;99.90;;;;;;4936771;29;20086;-84
2021/12/26 10:31:35;;;;;;;8.35;4.07;;;-1.90;97.40;;;;;;4936506;29;20050;-86
2021/12/26 10:34:01;;;;;;;10.70;4.70;;;-1.90;99.90;;;;;;4936622;29;20051;-85
2021/12/26 10:36:27;;;;;;;9.38;4.63;;;-1.80;99.90;;;;;;4936851;29;20058;-86
2021/12/26 10:39:14;;;;;;;8.55;4.57;;;-1.80;99.90;;;;;;4937872;29;20054;-87
2021/12/26 10:41:42;;;;;;;10.48;5.15;;;-1.70;99.70;;;;;;4936400;29;20051;-85
2021/12/26 10:44:22;;;;;;;9.45;4.47;;;-1.70;99.90;;;;;;4936414;29;20087;-86
2021/12/26 10:46:55;;;;;;;10.90;5.07;;;-1.70;99.60;;;;;;4936698;29;20059;-85
2021/12/26 10:49:31;;;;;;;11.40;5.20;;;-1.60;99.90;;;;;;4936748;29;20074;-83
2021/12/26 10:51:58;;;;;;;10.18;5.55;;;-1.60;99.90;;;;;;4937574;29;20055;-83
2021/12/26 10:54:26;;;;;;;12.18;6.45;;;-1.60;99.90;;;;;;4936588;29;20047;-83
2021/12/26 10:57:06;;;;;;;12.45;5.50;;;-1.60;98.40;;;;;;4937574;29;20604;-84
2021/12/26 10:59:32;;;;;;;12.98;6.95;;;-1.60;99.90;;;;;;4937691;29;20071;-85
2021/12/26 11:01:57;;;;;;;10.27;5.63;;;-1.60;99.90;;;;;;4936173;29;20047;-84
2021/12/26 11:04:26;;;;;;;13.93;5.90;;;-1.50;99.90;;;;;;4937267;29;20055;-86
2021/12/26 11:07:04;;;;;;;10.27;5.53;;;-1.50;99.90;;;;;;4936097;29;20381;-83
2021/12/26 11:09:30;;;;;;;14.55;6.13;;;-1.50;99.50;;;;;;4936050;29;20384;-84
2021/12/26 11:12:02;;;;;;;13.15;6.70;;;-1.40;99.10;;;;;;4936083;29;20484;-82
2021/12/26 11:14:28;;;;;;;12.40;6.30;;;-1.40;99.80;;;;;;4936014;29;20048;-82
2021/12/26 11:16:54;;;;;;;12.82;7.15;;;-1.40;99.90;;;;;;4935805;29;20059;-83
2021/12/26 11:19:55;;;;;;;18.95;7.78;;;-1.30;99.90;;;;;;4937333;29;20051;-83
2021/12/26 11:22:24;;;;;;;12.55;7.68;;;-1.20;99.70;;;;;;4881526;29;20104;-83
2021/12/26 11:24:50;;;;;;;16.02;7.43;;;-1.10;99.90;;;;;;4928681;29;20511;-83
2021/12/26 11:27:16;;;;;;;14.15;7.88;;;-1.10;99.70;;;;;;4936070;29;20043;-84
2021/12/26 11:29:42;;;;;;;12.77;7.35;;;-1.00;99.90;;;;;;4936086;29;20051;-84
2021/12/26 11:32:08;;;;;;;15.52;7.68;;;-0.90;99.90;;;;;;4935680;29;20051;-83
2021/12/26 11:34:34;;;;;;;16.42;7.88;;;-0.90;99.50;;;;;;4935586;29;20055;-84
2021/12/26 11:37:05;;;;;;;15.30;6.80;;;-0.90;97.60;;;;;;4935983;29;20094;-84
2021/12/26 11:39:31;;;;;;;15.90;7.47;;;-0.90;99.40;;;;;;4936000;29;20087;-84
2021/12/26 11:42:07;;;;;;;12.48;6.70;;;-0.80;97.60;;;;;;4935387;29;20047;-83
2021/12/26 11:44:47;;;;;;;14.50;7.85;;;-0.90;96.80;;;;;;4935498;29;20060;-85
2021/12/26 11:47:25;;;;;;;12.13;7.03;;;-0.80;96.80;;;;;;4935572;29;20059;-84
2021/12/26 11:50:05;;;;;;;14.20;6.88;;;-0.90;95.80;;;;;;4935612;29;20052;-84
2021/12/26 11:52:39;;;;;;;17.83;6.43;;;-0.70;99.30;;;;;;4947335;29;20023;-85
2021/12/26 11:55:47;;;;;;;19.35;8.05;;;-0.80;97.10;;;;;;4936753;29;20117;-85
2021/12/26 11:58:30;;;;;;;25.05;10.30;;;-0.70;94.80;;;;;;4937959;29;20059;-84
2021/12/26 12:00:59;;;;;;;16.75;8.00;;;-0.60;99.90;;;;;;4937205;29;20051;-85
2021/12/26 12:09:53;;;;;;;13.88;6.68;;;-0.50;99.00;;;;;;1199802;26;20140;-84
2021/12/26 12:15:44;;;;;;;12.50;5.97;;;-0.40;99.90;;;;;;5209098;23;20110;-86
2021/12/26 12:18:13;;;;;;;13.25;6.63;;;-0.40;99.50;;;;;;4877711;29;20064;-85
2021/12/26 12:20:42;;;;;;;14.68;5.20;;;-0.40;98.10;;;;;;4880123;29;20049;-85
2021/12/26 12:23:08;;;;;;;13.60;6.50;;;-0.40;98.10;;;;;;4881099;29;20072;-85
2021/12/26 12:25:38;;;;;;;12.30;6.22;;;-0.30;99.90;;;;;;4878999;29;20405;-86
2021/12/26 12:28:22;;;;;;;15.32;8.20;;;-0.30;99.90;;;;;;4882422;29;20055;-85
2021/12/26 12:30:55;;;;;;;13.13;6.10;;;-0.30;99.90;;;;;;4878313;29;20402;-89
2021/12/26 12:33:29;;;;;;;14.30;6.75;;;-0.30;99.20;;;;;;4878851;29;20081;-89
2021/12/26 12:36:04;;;;;;;17.75;8.68;;;-0.40;98.90;;;;;;4878438;29;20143;-87
2021/12/26 12:38:40;;;;;;;10.65;5.78;;;-0.40;99.70;;;;;;4878951;29;20071;-86
2021/12/26 12:41:28;;;;;;;11.90;6.60;;;-0.40;99.90;;;;;;4878753;29;20067;-85
2021/12/26 12:44:06;;;;;;;14.98;8.13;;;-0.30;99.90;;;;;;4878549;29;20486;-86
2021/12/26 12:46:52;;;;;;;16.63;8.00;;;-0.30;99.90;;;;;;4878333;29;20124;-87
2021/12/26 12:49:20;;;;;;;17.67;8.25;;;-0.30;99.90;;;;;;4878308;29;20489;-90
2021/12/26 12:51:47;;;;;;;18.02;8.30;;;-0.30;99.90;;;;;;4878317;29;20518;-88
2021/12/26 12:54:30;;;;;;;25.92;9.68;;;-0.30;99.90;;;;;;4878257;29;20049;-89
2021/12/26 12:57:03;;;;;;;12.98;7.28;;;-0.20;99.90;;;;;;4878961;29;20136;-92
2021/12/26 12:59:35;;;;;;;17.88;7.95;;;-0.20;99.90;;;;;;4878357;29;20045;-92
2021/12/26 13:02:27;;;;;;;19.25;7.97;;;-0.20;99.90;;;;;;4880130;29;20051;-89